Penn Yan, NY (14527)

5:54 AM EDT on June 27, 2017 (GMT -0400)
Indian Pines, Keuka Lake | | Change Station

Elev 720 ft 42.65 °N, 77.07 °W | Updated 7 minutes ago

Clear
Clear
56.6 °F
Feels Like 56.6 °F
N
6.0
Wind Variable Wind from SSW

Today
High -- | Low -- °F
--% Chance of Precip.
Yesterday
High -- | Low -- °F
Precip. -- in
Pressure 29.96 in
Visibility 10.0 miles
Clouds Clear
Dew Point 52 °F
Humidity 84%
Rainfall 0.00 in
Snow Depth Not available.
5:32 AM 8:50 PM
Waxing Crescent, 15% visible
METAR KPEO 270853Z AUTO 22010KT 10SM CLR 12/10 A2997 RMK AO2 SLP146 T01220100 55003
Pressure 29.96 in
Visibility 10.0 miles
Clouds Clear
Dew Point 52 °F
Humidity 84%
Rainfall 0.00 in
Snow Depth Not available.
5:32 AM 8:50 PM
Waxing Crescent, 15% visible
METAR KPEO 270853Z AUTO 22010KT 10SM CLR 12/10 A2997 RMK AO2 SLP146 T01220100 55003

Get Severe Weather Alerts

Thanks for signing up!

Be on the lookout for a verification email in your inbox.

You'll start receiving the daily forecast at 6 AM.

×

10-Day Weather Forecast

Almanac

Astronomy

Jun. 27, 2017 Rise Set
Actual Time
Civil Twilight
Nautical Twilight
Astronomical Twilight
Moon
Length of Visible Light
Length of Day
Tomorrow will be .
, % of the Moon is Illuminated

Today's Extremes

State Highs State Lows

Community

WunderPhotos

Category 6

Welcome to Category 6. This is the collective home for Weather Underground's featured writeups by Dr. Jeff Masters (right), Bob Henson (left), Chris Burt, and other regular contributors.

Nearby

Air Quality

  Air Quality AQ Index Pollutant
Not available.

Snow Depth

Station Depth Elevation

Earthquake Activity

City Distance Mag. Time & Date
Minimum magnitude displayed is 2.5.

Coastal Water Temperatures

Place Temperature

Stations

Nearby Weather Stations

Station Location Temp. Windchill Dew Point Humidity Wind Precip. Elev Updated Type
                   

Watches & Warnings

There are currently no watches in effect.